Latest Coastal Weather Observations for Moorabbin Airport

IDV60701

Issued at 12:55 pm EST Wednesday 3 September 2014 (issued every 10 minutes, with the page automatically refreshed every 10 minutes)

About coastal observations | Map of coastal stations | Coastal observations for VIC | Marine services | Other Formats
Station Details ID: 086077 Name: MOORABBIN AIRPORT Lat: -37.98 Lon: 145.10 Height: 12.1 m
Data from the previous 72 hours. | See also: Recent months at Moorabbin Airport
Date/Time
EST
Temp

°C
Wind Pressure Rain
since 9am
mm
Weather Cloud Vis
km
Sea
Height
m
Swell
Dir
 
Speed
knots
Gust
knots
hPa Trend Height
m
Period
s
Dir
03/12:30pm 12.7 SW 9 11 1021.4 - 0.0 - Partly cloudy 10 - - - -
03/12:00pm 12.0 SW 8 12 1021.8 - 0.0 - Cloudy 10 - - - -
03/11:30am 12.3 SSE 6 10 1022.1 - 0.0 - Partly cloudy 10 - - - -
03/11:00am 12.4 SE 6 12 1022.4 - 0.0 - Partly cloudy 10 - - - -
03/10:30am 12.3 ESE 8 10 1022.5 - 0.0 - Partly cloudy 10 - - - -
03/10:00am 11.6 ESE 9 12 1023.1 - 0.0 - Partly cloudy 10 - - - -
03/09:30am 11.7 SE 4 7 1023.4 - 0.0 - Partly cloudy 10 - - - -
03/09:00am 11.6 SSE 6 9 1023.4 - 0.0 - Partly cloudy 10 - - - -
03/08:30am 11.0 SSE 7 9 1023.4 - 0.0 - Cloudy 10 - - - -
03/08:00am 10.7 SE 7 10 1023.4 - 0.0 - Cloudy 10 - - - -
03/07:30am 10.3 S 5 6 1023.1 - 0.0 - Cloudy 10 - - - -
03/07:00am 9.9 S 5 8 1022.8 - 0.0 - Partly cloudy 10 - - - -
03/06:30am 10.2 S 7 12 1022.6 - 0.0 - Partly cloudy 10 - - - -
03/06:00am 9.7 S 7 10 1022.4 - 0.0 - Partly cloudy 10 - - - -
03/05:30am 10.1 S 8 12 1022.4 - 0.0 - Partly cloudy 10 - - - -
03/05:00am 10.3 SSW 10 13 1022.3 - 0.0 - Partly cloudy 10 - - - -
03/04:30am 9.9 SSW 8 12 1022.4 - 0.0 - Cloudy 10 - - - -
03/04:00am 9.9 SSW 10 13 1022.3 - 0.0 - - 10 - - - -
03/03:30am 9.9 SSW 11 15 1022.3 - 0.0 - - 10 - - - -
03/03:00am 9.9 SSW 11 16 1022.3 - 0.0 - - 10 - - - -
03/02:30am 10.2 SSW 13 18 1022.5 - 0.0 - Partly cloudy 10 - - - -
03/02:00am 10.0 SSW 9 12 1022.8 - 0.0 - Partly cloudy 10 - - - -
03/01:30am 10.3 SSW 9 13 1022.8 - 0.0 - Partly cloudy 10 - - - -
03/01:00am 9.9 S 10 15 1022.8 - 0.0 - Partly cloudy 10 - - - -
03/12:30am 9.9 S 11 15 1022.6 - 0.0 - Partly cloudy 10 - - - -
03/12:00am 10.1 SSW 10 15 1022.7 - 0.0 - Mostly clear 10 - - - -
 
Date/Time
EST
Temp

°C
Wind Pressure Rain
since 9am
mm
Weather Cloud Vis
km
Sea
Height
m
Swell
Dir
 
Speed
knots
Gust
knots
hPa Trend Height
m
Period
s
Dir
02/11:30pm 9.7 SSW 8 13 1022.8 - 0.0 - - 10 - - - -
02/11:00pm 10.2 SSW 10 15 1022.9 - 0.0 - - 10 - - - -
02/10:30pm 10.3 SSW 9 16 1022.9 - 0.0 - - 10 - - - -
02/10:00pm 9.8 SSW 8 11 1022.9 - 0.0 - - 10 - - - -
02/09:30pm 10.2 S 8 10 1022.8 - 0.0 - Partly cloudy 10 - - - -
02/09:00pm 10.9 S 7 10 1022.9 - 0.0 - Mostly cloudy 10 - - - -
02/08:30pm 10.5 SSW 7 9 1022.8 - 0.0 - Partly cloudy 10 - - - -
02/08:00pm 10.6 S 8 10 1022.6 - 0.0 - Partly cloudy 10 - - - -
02/07:30pm 11.2 S 8 11 1022.4 - 0.0 - Partly cloudy 10 - - - -
02/07:00pm 10.8 S 8 13 1022.1 - 0.0 - Partly cloudy 10 - - - -
02/06:30pm 11.3 S 8 14 1021.9 - 0.0 - Partly cloudy 10 - - - -
02/06:00pm 10.8 SSW 8 11 1021.5 - 0.0 - Mostly clear 10 - - - -
02/05:30pm 11.2 S 11 15 1021.1 - 0.0 - Partly cloudy 10 - - - -
02/05:00pm 11.6 S 15 21 1020.8 - 0.0 - Partly cloudy 10 - - - -
02/04:30pm 12.4 S 15 19 1020.3 - 0.0 - - 10 - - - -
02/04:00pm 12.8 S 17 22 1020.1 - 0.0 - Partly cloudy 10 - - - -
02/03:30pm 12.9 S 16 22 1019.9 - 0.0 - Partly cloudy 10 - - - -
02/03:00pm 13.3 S 17 21 1019.9 - 0.0 - Partly cloudy 10 - - - -
02/02:30pm 13.2 S 17 25 1019.6 - 0.0 - Partly cloudy 10 - - - -
02/02:00pm 13.7 S 17 23 1019.2 - 0.0 - - 10 - - - -
02/01:30pm 13.9 S 17 23 1018.9 - 0.0 - Partly cloudy 10 - - - -
02/01:00pm 13.6 SSW 17 23 1019.0 - 0.0 - - 10 - - - -
02/12:30pm 14.1 S 16 23 1018.8 - 0.0 - Partly cloudy 10 - - - -
02/12:00pm 13.5 SSW 15 21 1018.5 - 0.0 - Mostly clear 10 - - - -
02/11:30am 13.4 SSW 17 23 1018.5 - 0.0 - - 10 - - - -
02/11:00am 13.1 SSW 17 23 1018.4 - 0.0 - Partly cloudy 10 - - - -
02/10:30am 13.1 SSW 15 21 1018.4 - 0.0 - Partly cloudy 10 - - - -
02/10:00am 12.1 SW 13 16 1018.1 - 0.0 - Partly cloudy 10 - - - -
02/09:30am 12.3 SW 13 18 1017.9 - 0.0 - Partly cloudy 10 - - - -
02/09:00am 12.5 SSW 9 14 1017.7 - 12.2 - Cloudy 10 - - - -
02/08:30am 11.1 SW 9 12 1017.4 - 12.2 - Partly cloudy 10 - - - -
02/08:00am 10.6 S 6 9 1017.0 - 12.2 - Partly cloudy 10 - - - -
02/07:30am 10.7 SSW 7 12 1016.6 - 12.2 - Partly cloudy 10 - - - -
02/07:00am 10.3 SW 8 11 1016.2 - 12.2 - Partly cloudy 10 - - - -
02/06:30am 10.2 SSW 9 12 1015.8 - 12.2 - - 10 - - - -
02/06:00am 10.2 SSW 9 12 1015.3 - 12.2 - Partly cloudy 10 - - - -
02/05:30am 9.4 SW 5 7 1015.0 - 12.2 - Partly cloudy 10 - - - -
02/05:00am 9.7 SW 10 13 1014.5 - 12.2 - Partly cloudy 9 - - - -
02/04:30am 9.3 W 6 8 1014.2 - 11.8 - Partly cloudy 10 - - - -
02/04:24am 9.2 W 5 7 1014.2 - 11.8 - Partly cloudy 10 - - - -
02/04:00am 9.7 SW 4 6 1014.1 - 11.8 - Partly cloudy 10 - - - -
02/03:57am 9.7 WSW 5 7 1014.0 - 11.8 - Partly cloudy 10 - - - -
02/03:30am 9.7 SW 9 14 1014.0 - 11.8 - Partly cloudy 10 - - - -
02/03:00am 9.6 W 7 11 1013.6 - 11.4 - Partly cloudy 10 - - - -
02/02:30am 9.9 W 6 9 1013.4 - 11.4 - Partly cloudy 10 - - - -
02/02:00am 9.7 WSW 5 7 1013.3 - 11.4 - Partly cloudy 10 - - - -
02/01:30am 9.2 SW 6 8 1013.4 - 11.4 - Partly cloudy 10 - - - -
02/01:00am 10.2 WSW 8 13 1013.3 - 11.2 - Partly cloudy 10 - - - -
02/12:30am 10.3 W 9 12 1013.0 - 11.2 - Partly cloudy 10 - - - -
02/12:00am 10.2 W 7 9 1012.9 - 11.2 - Partly cloudy 10 - - - -
 
Date/Time
EST
Temp

°C
Wind Pressure Rain
since 9am
mm
Weather Cloud Vis
km
Sea
Height
m
Swell
Dir
 
Speed
knots
Gust
knots
hPa Trend Height
m
Period
s
Dir
01/11:30pm 10.4 W 6 8 1012.7 - 11.2 - Partly cloudy 10 - - - -
01/11:00pm 10.3 WNW 4 7 1012.5 - 11.2 - Partly cloudy 10 - - - -
01/10:30pm 10.2 WNW 4 6 1012.4 - 11.2 - Partly cloudy 10 - - - -
01/10:00pm 10.0 NW 5 8 1012.5 - 11.2 - Partly cloudy 10 - - - -
01/09:30pm 10.3 NW 7 10 1012.4 - 11.2 - Partly cloudy 10 - - - -
01/09:00pm 10.5 WNW 6 9 1011.9 - 11.2 - Cloudy 10 - - - -
01/08:30pm 11.0 W 6 8 1011.7 - 11.2 - Partly cloudy 10 - - - -
01/08:00pm 11.1 WNW 4 6 1011.5 - 11.2 - Partly cloudy 10 - - - -
01/07:30pm 11.3 W 5 6 1011.0 - 11.2 - Partly cloudy 10 - - - -
01/07:00pm 11.3 WSW 4 5 1010.8 - 10.6 - Partly cloudy 10 - - - -
01/06:30pm 11.0 WNW 4 5 1010.6 - 10.6 - Partly cloudy 10 - - - -
01/06:07pm 10.9 WNW 4 5 1010.2 - 10.6 - Partly cloudy 10 - - - -
01/06:00pm 10.9 W 4 6 1010.1 - 10.4 Recent precip. Cloudy 10 - - - -
01/05:39pm 10.9 WNW 5 7 1009.9 - 9.4 - Partly cloudy 5 - - - -
01/05:30pm 11.0 WNW 5 7 1009.8 - 8.8 - Partly cloudy 8 - - - -
01/05:19pm 11.1 WNW 5 7 1009.7 - 8.6 - Partly cloudy 6 - - - -
01/05:00pm 11.2 WSW 6 9 1009.4 - 8.4 - Partly cloudy 4 - - - -
01/04:31pm 11.6 SW 4 5 1009.0 - 5.8 - Partly cloudy 5 - - - -
01/04:30pm 11.6 SW 4 5 1009.0 - 5.6 - Partly cloudy 7 - - - -
01/04:19pm 11.6 WNW 4 5 1008.9 - 5.4 - Partly cloudy 10 - - - -
01/04:00pm 11.6 WNW 5 7 1008.9 - 5.2 - Partly cloudy 10 - - - -
01/03:51pm 11.6 WNW 5 8 1008.9 - 5.0 - Partly cloudy 6 - - - -
01/03:30pm 11.9 WNW 5 6 1008.6 - 4.4 - Partly cloudy 10 - - - -
01/03:00pm 11.9 WNW 5 8 1008.6 - 4.2 Recent precip. Mostly cloudy 10 - - - -
01/02:30pm 12.4 WNW 7 12 1008.4 - 4.0 - Partly cloudy 6 - - - -
01/02:00pm 12.4 N 7 9 1008.0 - 3.6 - Partly cloudy 10 - - - -
01/01:30pm 12.4 N 8 11 1008.4 - 3.2 - Partly cloudy 10 - - - -
01/01:00pm 12.5 NNW 7 9 1008.7 - 3.0 - Partly cloudy 10 - - - -
01/12:30pm 12.7 N 9 13 1008.5 - 2.4 - Partly cloudy 10 - - - -
01/12:00pm 12.2 N 9 12 1008.8 - 2.0 Recent precip. Cloudy 10 - - - -
01/11:42am 11.9 NNW 8 12 1008.7 - 2.0 - Partly cloudy 10 - - - -
01/11:30am 11.8 NNW 10 13 1008.9 - 1.8 - Partly cloudy 4 - - - -
01/11:21am 12.4 WNW 9 14 1009.1 - 1.0 - Partly cloudy 5 - - - -
01/11:00am 14.3 NW 11 17 1008.7 - 0.0 - Partly cloudy 10 - - - -
01/10:30am 15.5 NNW 12 15 1008.8 - 0.0 - Partly cloudy 10 - - - -
01/10:00am 15.5 NNW 12 17 1008.9 - 0.0 - Partly cloudy 10 - - - -
01/09:30am 15.3 NNW 14 19 1009.1 - 0.0 - Partly cloudy 10 - - - -
01/09:00am 15.6 NNW 15 21 1008.2 - 0.0 - Cloudy 10 - - - -
01/08:30am 16.0 NNW 16 23 1008.4 - 0.0 - Cloudy 10 - - - -
01/08:02am 16.5 NNW 15 25 1008.0 - 0.0 - Cloudy 10 - - - -
01/08:00am 16.7 NNW 16 25 1008.0 - 0.0 - Cloudy 10 - - - -
01/07:40am 16.6 N 17 27 1007.5 - 0.0 - Cloudy 10 - - - -
01/07:30am 16.6 N 20 27 1007.3 - 0.0 - Cloudy 10 - - - -
01/07:00am 16.3 N 15 22 1007.7 - 0.0 - Partly cloudy 10 - - - -
01/06:30am 16.2 N 13 19 1008.1 - 0.0 - Cloudy 10 - - - -
01/06:00am 16.5 N 14 19 1007.8 - 0.0 - Cloudy 10 - - - -
01/05:30am 16.9 N 12 17 1008.0 - 0.0 - Cloudy 10 - - - -
01/05:00am 17.0 N 15 23 1007.5 - 0.0 - Cloudy 10 - - - -
01/04:30am 16.8 N 17 22 1007.0 - 0.0 - Partly cloudy 10 - - - -
01/04:00am 16.9 N 20 28 1007.6 - 0.0 - Partly cloudy 10 - - - -
01/03:30am 17.2 N 20 27 1008.1 - 0.0 - - 10 - - - -
01/03:06am 17.6 N 19 29 1008.3 - 0.0 - Partly cloudy 10 - - - -
01/03:00am 17.6 N 20 28 1008.5 - 0.0 - Mostly cloudy 10 - - - -
01/02:50am 17.8 N 20 30 1008.3 - 0.0 - Partly cloudy 10 - - - -
01/02:30am 17.2 N 17 23 1008.6 - 0.0 - Partly cloudy 10 - - - -
01/02:00am 17.4 N 19 24 1008.9 - 0.0 - - 10 - - - -
01/01:30am 17.7 N 17 22 1009.3 - 0.0 - - 10 - - - -
01/01:00am 17.4 N 14 18 1009.8 - 0.0 - - 10 - - - -
01/12:30am 17.9 N 17 23 1009.8 - 0.0 - - 10 - - - -
01/12:00am 17.2 N 15 22 1009.7 - 0.0 - Cloudy 10 - - - -
 
Date/Time
EST
Temp

°C
Wind Pressure Rain
since 9am
mm
Weather Cloud Vis
km
Sea
Height
m
Swell
Dir
 
Speed
knots
Gust
knots
hPa Trend Height
m
Period
s
Dir
31/11:30pm 17.5 N 17 23 1009.5 - 0.0 - - 10 - - - -
31/11:00pm 17.4 N 19 24 1010.0 - 0.0 - Partly cloudy 10 - - - -
31/10:30pm 17.2 NNE 19 29 1010.2 - 0.0 - Partly cloudy 10 - - - -
31/10:00pm 17.0 N 16 21 1011.2 - 0.0 - - 10 - - - -
31/09:30pm 16.8 N 13 18 1012.2 - 0.0 - - 10 - - - -
31/09:00pm 17.0 NNE 12 17 1012.3 - 0.0 - Cloudy 10 - - - -
31/08:30pm 16.9 NNE 12 15 1012.6 - 0.0 - - 10 - - - -
31/08:00pm 16.9 NNE 11 15 1012.9 - 0.0 - - 10 - - - -
31/07:30pm 17.1 NNE 11 15 1013.0 - 0.0 - - 10 - - - -
31/07:00pm 17.4 N 14 17 1012.9 - 0.0 - - 10 - - - -
31/06:30pm 17.5 N 14 18 1013.3 - 0.0 - - 10 - - - -
31/06:00pm 17.7 N 14 19 1013.5 - 0.0 - Partly cloudy 10 - - - -
31/05:30pm 18.5 N 14 20 1013.4 - 0.0 - - 10 - - - -
31/05:00pm 18.9 N 17 22 1013.3 - 0.0 - - 10 - - - -
31/04:30pm 19.5 N 16 21 1013.1 - 0.0 - - 10 - - - -
31/04:19pm 19.7 N 15 25 1013.1 - 0.0 - - 10 - - - -
31/04:00pm 20.1 N 18 24 1013.3 - 0.0 - - 10 - - - -
31/03:30pm 19.8 N 18 24 1013.5 - 0.0 - - 10 - - - -
31/03:00pm 20.4 N 16 20 1014.2 - 0.0 - Mostly cloudy 10 - - - -
31/02:30pm 20.1 N 17 23 1014.5 - 0.0 - - 10 - - - -
31/02:00pm 20.8 N 17 24 1014.7 - 0.0 - - 10 - - - -
31/01:30pm 20.0 N 17 24 1014.9 - 0.0 - - 10 - - - -
31/01:00pm 20.6 N 19 27 1015.4 - 0.0 - - 10 - - - -

Other Formats:

Comma delimited format used in spreadsheet applications
http://www.bom.gov.au/fwo/IDV60701/IDV60701.94870.axf

JavaScript Object Notation format (JSON) in row-major order
http://www.bom.gov.au/fwo/IDV60701/IDV60701.94870.json